sensor_id;sensor_type;location;lat;lon;timestamp;P1;durP1;ratioP1;P2;durP2;ratioP2
53927;SDS011;39837;47.630;18.822;2023-04-24T00:02:18;6.22;;;5.20;;
53927;SDS011;39837;47.630;18.822;2023-04-24T00:05:03;8.57;;;3.92;;
53927;SDS011;39837;47.630;18.822;2023-04-24T00:07:51;3.45;;;3.22;;
53927;SDS011;39837;47.630;18.822;2023-04-24T00:10:38;3.90;;;3.58;;
53927;SDS011;39837;47.630;18.822;2023-04-24T00:13:22;3.75;;;3.53;;
53927;SDS011;39837;47.630;18.822;2023-04-24T00:16:07;3.63;;;3.42;;
53927;SDS011;39837;47.630;18.822;2023-04-24T00:18:51;4.78;;;4.32;;
53927;SDS011;39837;47.630;18.822;2023-04-24T00:21:36;6.50;;;3.97;;
53927;SDS011;39837;47.630;18.822;2023-04-24T00:24:21;4.80;;;3.95;;
53927;SDS011;39837;47.630;18.822;2023-04-24T00:27:05;4.40;;;4.00;;
53927;SDS011;39837;47.630;18.822;2023-04-24T00:29:49;5.22;;;3.15;;
53927;SDS011;39837;47.630;18.822;2023-04-24T00:32:33;9.75;;;3.55;;
53927;SDS011;39837;47.630;18.822;2023-04-24T00:35:18;4.03;;;3.60;;
53927;SDS011;39837;47.630;18.822;2023-04-24T00:38:03;4.03;;;3.58;;
53927;SDS011;39837;47.630;18.822;2023-04-24T00:40:48;17.30;;;3.92;;
53927;SDS011;39837;47.630;18.822;2023-04-24T00:46:17;4.63;;;3.72;;
53927;SDS011;39837;47.630;18.822;2023-04-24T00:49:02;2.95;;;2.83;;
53927;SDS011;39837;47.630;18.822;2023-04-24T00:51:46;3.95;;;3.65;;
53927;SDS011;39837;47.630;18.822;2023-04-24T00:54:31;3.25;;;3.05;;
53927;SDS011;39837;47.630;18.822;2023-04-24T00:57:15;5.70;;;3.33;;
53927;SDS011;39837;47.630;18.822;2023-04-24T00:59:58;3.17;;;2.97;;
53927;SDS011;39837;47.630;18.822;2023-04-24T01:02:43;3.42;;;3.15;;
53927;SDS011;39837;47.630;18.822;2023-04-24T01:08:13;3.03;;;2.92;;
53927;SDS011;39837;47.630;18.822;2023-04-24T01:10:58;2.70;;;2.60;;
53927;SDS011;39837;47.630;18.822;2023-04-24T01:13:43;5.28;;;3.20;;
53927;SDS011;39837;47.630;18.822;2023-04-24T01:16:27;3.08;;;2.90;;
53927;SDS011;39837;47.630;18.822;2023-04-24T01:19:11;10.23;;;3.20;;
53927;SDS011;39837;47.630;18.822;2023-04-24T01:21:57;4.03;;;3.13;;
53927;SDS011;39837;47.630;18.822;2023-04-24T01:24:42;3.13;;;2.92;;
53927;SDS011;39837;47.630;18.822;2023-04-24T01:27:26;4.72;;;3.00;;
53927;SDS011;39837;47.630;18.822;2023-04-24T01:30:11;3.05;;;2.85;;
53927;SDS011;39837;47.630;18.822;2023-04-24T01:32:55;3.58;;;3.30;;
53927;SDS011;39837;47.630;18.822;2023-04-24T01:35:39;5.55;;;3.45;;
53927;SDS011;39837;47.630;18.822;2023-04-24T01:38:24;3.42;;;3.22;;
53927;SDS011;39837;47.630;18.822;2023-04-24T01:41:08;3.63;;;3.33;;
53927;SDS011;39837;47.630;18.822;2023-04-24T01:43:53;3.05;;;2.85;;
53927;SDS011;39837;47.630;18.822;2023-04-24T01:46:37;4.57;;;3.72;;
53927;SDS011;39837;47.630;18.822;2023-04-24T01:49:21;17.90;;;3.78;;
53927;SDS011;39837;47.630;18.822;2023-04-24T01:52:06;2.97;;;2.78;;
53927;SDS011;39837;47.630;18.822;2023-04-24T01:54:50;4.70;;;4.30;;
53927;SDS011;39837;47.630;18.822;2023-04-24T01:57:34;3.40;;;3.15;;
53927;SDS011;39837;47.630;18.822;2023-04-24T02:00:18;3.95;;;3.47;;
53927;SDS011;39837;47.630;18.822;2023-04-24T02:03:02;9.25;;;3.65;;
53927;SDS011;39837;47.630;18.822;2023-04-24T02:05:46;3.67;;;3.30;;
53927;SDS011;39837;47.630;18.822;2023-04-24T02:08:30;3.95;;;3.65;;
53927;SDS011;39837;47.630;18.822;2023-04-24T02:11:14;7.55;;;3.90;;
53927;SDS011;39837;47.630;18.822;2023-04-24T02:13:59;6.18;;;3.30;;
53927;SDS011;39837;47.630;18.822;2023-04-24T02:16:43;3.60;;;3.30;;
53927;SDS011;39837;47.630;18.822;2023-04-24T02:19:27;3.65;;;3.38;;
53927;SDS011;39837;47.630;18.822;2023-04-24T02:22:12;2.97;;;2.58;;
53927;SDS011;39837;47.630;18.822;2023-04-24T02:24:56;3.38;;;3.10;;
53927;SDS011;39837;47.630;18.822;2023-04-24T02:27:40;4.22;;;3.92;;
53927;SDS011;39837;47.630;18.822;2023-04-24T02:30:24;3.53;;;3.33;;
53927;SDS011;39837;47.630;18.822;2023-04-24T02:33:08;3.70;;;3.35;;
53927;SDS011;39837;47.630;18.822;2023-04-24T02:35:52;3.03;;;2.83;;
53927;SDS011;39837;47.630;18.822;2023-04-24T02:38:36;3.55;;;3.33;;
53927;SDS011;39837;47.630;18.822;2023-04-24T02:41:20;4.65;;;4.25;;
53927;SDS011;39837;47.630;18.822;2023-04-24T02:44:04;4.30;;;4.00;;
53927;SDS011;39837;47.630;18.822;2023-04-24T02:46:48;3.92;;;3.67;;
53927;SDS011;39837;47.630;18.822;2023-04-24T02:49:32;6.35;;;3.08;;
53927;SDS011;39837;47.630;18.822;2023-04-24T02:52:16;6.07;;;4.35;;
53927;SDS011;39837;47.630;18.822;2023-04-24T02:55:00;4.68;;;4.28;;
53927;SDS011;39837;47.630;18.822;2023-04-24T02:57:44;5.28;;;4.78;;
53927;SDS011;39837;47.630;18.822;2023-04-24T03:00:29;7.95;;;3.75;;
53927;SDS011;39837;47.630;18.822;2023-04-24T03:03:14;5.43;;;4.63;;
53927;SDS011;39837;47.630;18.822;2023-04-24T03:05:58;4.88;;;3.83;;
53927;SDS011;39837;47.630;18.822;2023-04-24T03:08:43;6.22;;;4.32;;
53927;SDS011;39837;47.630;18.822;2023-04-24T03:11:27;4.82;;;4.10;;
53927;SDS011;39837;47.630;18.822;2023-04-24T03:14:11;7.78;;;4.53;;
53927;SDS011;39837;47.630;18.822;2023-04-24T03:16:54;4.75;;;4.35;;
53927;SDS011;39837;47.630;18.822;2023-04-24T03:19:38;4.82;;;4.43;;
53927;SDS011;39837;47.630;18.822;2023-04-24T03:22:23;3.90;;;3.60;;
53927;SDS011;39837;47.630;18.822;2023-04-24T03:25:07;4.03;;;3.63;;
53927;SDS011;39837;47.630;18.822;2023-04-24T03:27:52;4.80;;;3.80;;
53927;SDS011;39837;47.630;18.822;2023-04-24T03:30:38;5.80;;;4.30;;
53927;SDS011;39837;47.630;18.822;2023-04-24T03:33:22;5.55;;;5.05;;
53927;SDS011;39837;47.630;18.822;2023-04-24T03:36:06;5.38;;;4.90;;
53927;SDS011;39837;47.630;18.822;2023-04-24T03:38:50;5.70;;;4.40;;
53927;SDS011;39837;47.630;18.822;2023-04-24T03:41:34;4.93;;;4.47;;
53927;SDS011;39837;47.630;18.822;2023-04-24T03:44:19;4.43;;;4.05;;
53927;SDS011;39837;47.630;18.822;2023-04-24T03:47:03;5.65;;;4.25;;
53927;SDS011;39837;47.630;18.822;2023-04-24T03:49:47;5.00;;;4.38;;
53927;SDS011;39837;47.630;18.822;2023-04-24T03:52:31;3.95;;;3.65;;
53927;SDS011;39837;47.630;18.822;2023-04-24T03:55:16;5.72;;;4.43;;
53927;SDS011;39837;47.630;18.822;2023-04-24T03:58:00;4.93;;;4.45;;
53927;SDS011;39837;47.630;18.822;2023-04-24T04:00:44;4.40;;;3.92;;
53927;SDS011;39837;47.630;18.822;2023-04-24T04:03:31;4.22;;;3.83;;
53927;SDS011;39837;47.630;18.822;2023-04-24T04:06:15;3.95;;;3.65;;
53927;SDS011;39837;47.630;18.822;2023-04-24T04:08:59;5.22;;;3.63;;
53927;SDS011;39837;47.630;18.822;2023-04-24T04:11:43;9.07;;;4.10;;
53927;SDS011;39837;47.630;18.822;2023-04-24T04:14:27;4.53;;;4.13;;
53927;SDS011;39837;47.630;18.822;2023-04-24T04:17:12;11.32;;;4.70;;
53927;SDS011;39837;47.630;18.822;2023-04-24T04:19:56;4.75;;;4.30;;
53927;SDS011;39837;47.630;18.822;2023-04-24T04:22:41;7.82;;;4.32;;
53927;SDS011;39837;47.630;18.822;2023-04-24T04:25:25;4.30;;;4.03;;
53927;SDS011;39837;47.630;18.822;2023-04-24T04:28:09;7.97;;;4.68;;
53927;SDS011;39837;47.630;18.822;2023-04-24T04:30:53;6.55;;;4.32;;
53927;SDS011;39837;47.630;18.822;2023-04-24T04:33:38;5.25;;;4.53;;
53927;SDS011;39837;47.630;18.822;2023-04-24T04:36:22;6.57;;;5.15;;
53927;SDS011;39837;47.630;18.822;2023-04-24T04:39:07;6.78;;;6.05;;
53927;SDS011;39837;47.630;18.822;2023-04-24T04:41:52;5.35;;;4.88;;
53927;SDS011;39837;47.630;18.822;2023-04-24T04:44:36;5.95;;;4.63;;
53927;SDS011;39837;47.630;18.822;2023-04-24T04:47:22;8.38;;;5.18;;
53927;SDS011;39837;47.630;18.822;2023-04-24T04:50:07;11.57;;;4.13;;
53927;SDS011;39837;47.630;18.822;2023-04-24T04:52:51;5.88;;;4.28;;
53927;SDS011;39837;47.630;18.822;2023-04-24T04:55:36;4.75;;;4.38;;
53927;SDS011;39837;47.630;18.822;2023-04-24T04:58:21;15.40;;;5.07;;
53927;SDS011;39837;47.630;18.822;2023-04-24T05:01:05;5.80;;;4.93;;
53927;SDS011;39837;47.630;18.822;2023-04-24T05:03:50;5.25;;;4.75;;
53927;SDS011;39837;47.630;18.822;2023-04-24T05:06:34;5.70;;;4.75;;
53927;SDS011;39837;47.630;18.822;2023-04-24T05:09:18;8.27;;;4.35;;
53927;SDS011;39837;47.630;18.822;2023-04-24T05:12:03;6.63;;;5.03;;
53927;SDS011;39837;47.630;18.822;2023-04-24T05:14:47;14.43;;;4.88;;
53927;SDS011;39837;47.630;18.822;2023-04-24T05:17:33;6.13;;;5.20;;
53927;SDS011;39837;47.630;18.822;2023-04-24T05:20:17;5.25;;;4.75;;
53927;SDS011;39837;47.630;18.822;2023-04-24T05:23:01;4.57;;;4.18;;
53927;SDS011;39837;47.630;18.822;2023-04-24T05:25:46;4.88;;;4.47;;
53927;SDS011;39837;47.630;18.822;2023-04-24T05:28:30;6.75;;;4.40;;
53927;SDS011;39837;47.630;18.822;2023-04-24T05:31:14;6.30;;;4.82;;
53927;SDS011;39837;47.630;18.822;2023-04-24T05:33:58;4.90;;;4.57;;
53927;SDS011;39837;47.630;18.822;2023-04-24T05:36:42;6.43;;;4.55;;
53927;SDS011;39837;47.630;18.822;2023-04-24T05:39:26;5.43;;;4.93;;
53927;SDS011;39837;47.630;18.822;2023-04-24T05:42:10;6.25;;;4.15;;
53927;SDS011;39837;47.630;18.822;2023-04-24T05:44:54;6.55;;;5.53;;
53927;SDS011;39837;47.630;18.822;2023-04-24T05:47:38;5.97;;;4.22;;
53927;SDS011;39837;47.630;18.822;2023-04-24T05:50:22;7.18;;;5.40;;
53927;SDS011;39837;47.630;18.822;2023-04-24T05:53:07;9.20;;;4.55;;
53927;SDS011;39837;47.630;18.822;2023-04-24T05:55:51;5.32;;;4.80;;
53927;SDS011;39837;47.630;18.822;2023-04-24T05:58:35;4.85;;;4.45;;
53927;SDS011;39837;47.630;18.822;2023-04-24T06:01:21;5.53;;;4.97;;
53927;SDS011;39837;47.630;18.822;2023-04-24T06:04:05;4.72;;;4.32;;
53927;SDS011;39837;47.630;18.822;2023-04-24T06:06:50;7.93;;;5.32;;
53927;SDS011;39837;47.630;18.822;2023-04-24T06:09:39;9.00;;;5.35;;
53927;SDS011;39837;47.630;18.822;2023-04-24T06:12:23;5.00;;;4.55;;
53927;SDS011;39837;47.630;18.822;2023-04-24T06:15:08;8.48;;;5.53;;
53927;SDS011;39837;47.630;18.822;2023-04-24T06:17:52;5.40;;;4.90;;
53927;SDS011;39837;47.630;18.822;2023-04-24T06:20:36;7.80;;;5.38;;
53927;SDS011;39837;47.630;18.822;2023-04-24T06:23:20;9.45;;;6.45;;
53927;SDS011;39837;47.630;18.822;2023-04-24T06:26:04;7.05;;;5.93;;
53927;SDS011;39837;47.630;18.822;2023-04-24T06:28:48;15.68;;;4.72;;
53927;SDS011;39837;47.630;18.822;2023-04-24T06:31:34;4.22;;;3.90;;
53927;SDS011;39837;47.630;18.822;2023-04-24T06:34:20;15.20;;;4.80;;
53927;SDS011;39837;47.630;18.822;2023-04-24T06:37:04;5.60;;;4.75;;
53927;SDS011;39837;47.630;18.822;2023-04-24T06:39:48;6.25;;;5.38;;
53927;SDS011;39837;47.630;18.822;2023-04-24T06:42:32;4.95;;;3.75;;
53927;SDS011;39837;47.630;18.822;2023-04-24T06:45:16;4.43;;;4.13;;
53927;SDS011;39837;47.630;18.822;2023-04-24T06:48:00;4.13;;;3.72;;
53927;SDS011;39837;47.630;18.822;2023-04-24T06:50:44;4.88;;;4.47;;
53927;SDS011;39837;47.630;18.822;2023-04-24T06:53:28;10.77;;;6.15;;
53927;SDS011;39837;47.630;18.822;2023-04-24T06:56:12;4.78;;;4.25;;
53927;SDS011;39837;47.630;18.822;2023-04-24T06:58:56;3.05;;;2.75;;
53927;SDS011;39837;47.630;18.822;2023-04-24T07:01:40;12.07;;;3.65;;
53927;SDS011;39837;47.630;18.822;2023-04-24T07:04:24;3.35;;;3.08;;
53927;SDS011;39837;47.630;18.822;2023-04-24T07:07:09;5.65;;;4.40;;
53927;SDS011;39837;47.630;18.822;2023-04-24T07:09:56;12.95;;;2.95;;
53927;SDS011;39837;47.630;18.822;2023-04-24T07:12:41;3.33;;;2.38;;
53927;SDS011;39837;47.630;18.822;2023-04-24T07:15:25;4.57;;;3.53;;
53927;SDS011;39837;47.630;18.822;2023-04-24T07:18:10;2.90;;;2.70;;
53927;SDS011;39837;47.630;18.822;2023-04-24T07:20:54;2.33;;;2.22;;
53927;SDS011;39837;47.630;18.822;2023-04-24T07:23:38;3.58;;;3.15;;
53927;SDS011;39837;47.630;18.822;2023-04-24T07:26:22;9.55;;;2.55;;
53927;SDS011;39837;47.630;18.822;2023-04-24T07:29:06;2.95;;;2.75;;
53927;SDS011;39837;47.630;18.822;2023-04-24T07:31:51;4.75;;;3.75;;
53927;SDS011;39837;47.630;18.822;2023-04-24T07:34:35;3.97;;;2.28;;
53927;SDS011;39837;47.630;18.822;2023-04-24T07:37:19;3.72;;;3.15;;
53927;SDS011;39837;47.630;18.822;2023-04-24T07:40:03;4.07;;;3.22;;
53927;SDS011;39837;47.630;18.822;2023-04-24T07:42:48;2.65;;;2.45;;
53927;SDS011;39837;47.630;18.822;2023-04-24T07:45:31;4.80;;;3.03;;
53927;SDS011;39837;47.630;18.822;2023-04-24T07:48:19;3.80;;;3.28;;
53927;SDS011;39837;47.630;18.822;2023-04-24T07:51:05;4.18;;;3.20;;
53927;SDS011;39837;47.630;18.822;2023-04-24T07:53:49;3.13;;;2.83;;
53927;SDS011;39837;47.630;18.822;2023-04-24T07:56:33;2.60;;;2.33;;
53927;SDS011;39837;47.630;18.822;2023-04-24T07:59:18;2.90;;;2.70;;
53927;SDS011;39837;47.630;18.822;2023-04-24T08:02:02;6.95;;;3.00;;
53927;SDS011;39837;47.630;18.822;2023-04-24T08:04:46;2.35;;;2.15;;
53927;SDS011;39837;47.630;18.822;2023-04-24T08:07:30;2.35;;;1.88;;
53927;SDS011;39837;47.630;18.822;2023-04-24T08:10:15;2.00;;;1.73;;
53927;SDS011;39837;47.630;18.822;2023-04-24T08:12:59;1.95;;;1.70;;
53927;SDS011;39837;47.630;18.822;2023-04-24T08:15:43;1.75;;;1.65;;
53927;SDS011;39837;47.630;18.822;2023-04-24T08:18:27;4.45;;;2.20;;
53927;SDS011;39837;47.630;18.822;2023-04-24T08:21:11;2.05;;;1.95;;
53927;SDS011;39837;47.630;18.822;2023-04-24T08:24:00;1.38;;;1.35;;
53927;SDS011;39837;47.630;18.822;2023-04-24T08:26:48;1.75;;;1.65;;
53927;SDS011;39837;47.630;18.822;2023-04-24T08:29:36;1.58;;;1.55;;
53927;SDS011;39837;47.630;18.822;2023-04-24T08:32:20;1.40;;;1.40;;
53927;SDS011;39837;47.630;18.822;2023-04-24T08:35:04;1.70;;;1.65;;
53927;SDS011;39837;47.630;18.822;2023-04-24T08:37:49;1.40;;;1.40;;
53927;SDS011;39837;47.630;18.822;2023-04-24T08:40:33;4.70;;;1.70;;
53927;SDS011;39837;47.630;18.822;2023-04-24T08:43:18;1.63;;;1.58;;
53927;SDS011;39837;47.630;18.822;2023-04-24T08:46:03;1.93;;;1.80;;
53927;SDS011;39837;47.630;18.822;2023-04-24T08:48:47;1.83;;;1.75;;
53927;SDS011;39837;47.630;18.822;2023-04-24T08:51:31;0.90;;;0.90;;
53927;SDS011;39837;47.630;18.822;2023-04-24T08:54:15;4.32;;;1.70;;
53927;SDS011;39837;47.630;18.822;2023-04-24T08:57:00;1.60;;;1.40;;
53927;SDS011;39837;47.630;18.822;2023-04-24T08:59:47;2.03;;;1.90;;
53927;SDS011;39837;47.630;18.822;2023-04-24T09:02:31;1.30;;;1.30;;
53927;SDS011;39837;47.630;18.822;2023-04-24T09:05:17;1.75;;;1.65;;
53927;SDS011;39837;47.630;18.822;2023-04-24T09:08:04;1.65;;;1.60;;
53927;SDS011;39837;47.630;18.822;2023-04-24T09:10:49;1.45;;;1.45;;
53927;SDS011;39837;47.630;18.822;2023-04-24T09:13:33;4.80;;;2.17;;
53927;SDS011;39837;47.630;18.822;2023-04-24T09:16:17;4.70;;;3.03;;
53927;SDS011;39837;47.630;18.822;2023-04-24T09:19:01;2.45;;;1.98;;
53927;SDS011;39837;47.630;18.822;2023-04-24T09:21:46;2.35;;;2.00;;
53927;SDS011;39837;47.630;18.822;2023-04-24T09:24:30;3.65;;;2.20;;
53927;SDS011;39837;47.630;18.822;2023-04-24T09:27:14;2.50;;;2.30;;
53927;SDS011;39837;47.630;18.822;2023-04-24T09:30:00;2.30;;;2.10;;
53927;SDS011;39837;47.630;18.822;2023-04-24T09:32:44;2.80;;;2.58;;
53927;SDS011;39837;47.630;18.822;2023-04-24T09:35:28;3.50;;;3.20;;
53927;SDS011;39837;47.630;18.822;2023-04-24T09:38:13;2.70;;;2.50;;
53927;SDS011;39837;47.630;18.822;2023-04-24T09:41:01;3.55;;;2.90;;
53927;SDS011;39837;47.630;18.822;2023-04-24T09:43:57;2.20;;;2.10;;
53927;SDS011;39837;47.630;18.822;2023-04-24T09:46:55;6.90;;;3.25;;
53927;SDS011;39837;47.630;18.822;2023-04-24T09:49:39;4.57;;;2.78;;
53927;SDS011;39837;47.630;18.822;2023-04-24T09:52:24;12.80;;;2.47;;
53927;SDS011;39837;47.630;18.822;2023-04-24T09:55:13;3.40;;;3.03;;
53927;SDS011;39837;47.630;18.822;2023-04-24T09:58:01;4.30;;;2.47;;
53927;SDS011;39837;47.630;18.822;2023-04-24T10:00:48;2.00;;;1.90;;
53927;SDS011;39837;47.630;18.822;2023-04-24T10:03:33;2.88;;;2.10;;
53927;SDS011;39837;47.630;18.822;2023-04-24T10:06:17;16.80;;;2.78;;
53927;SDS011;39837;47.630;18.822;2023-04-24T10:09:01;6.03;;;3.03;;
53927;SDS011;39837;47.630;18.822;2023-04-24T10:11:51;6.82;;;3.30;;
53927;SDS011;39837;47.630;18.822;2023-04-24T10:14:36;3.38;;;3.08;;
53927;SDS011;39837;47.630;18.822;2023-04-24T10:17:21;3.60;;;2.80;;
53927;SDS011;39837;47.630;18.822;2023-04-24T10:20:07;5.68;;;3.67;;
53927;SDS011;39837;47.630;18.822;2023-04-24T10:22:53;10.18;;;3.97;;
53927;SDS011;39837;47.630;18.822;2023-04-24T10:25:38;2.85;;;2.65;;
53927;SDS011;39837;47.630;18.822;2023-04-24T10:28:22;3.08;;;2.88;;
53927;SDS011;39837;47.630;18.822;2023-04-24T10:31:07;3.72;;;3.40;;
53927;SDS011;39837;47.630;18.822;2023-04-24T10:33:53;3.60;;;2.95;;
53927;SDS011;39837;47.630;18.822;2023-04-24T10:36:39;6.32;;;3.70;;
53927;SDS011;39837;47.630;18.822;2023-04-24T10:39:25;3.30;;;3.08;;
53927;SDS011;39837;47.630;18.822;2023-04-24T10:42:16;4.63;;;3.85;;
53927;SDS011;39837;47.630;18.822;2023-04-24T10:45:04;3.03;;;2.83;;
53927;SDS011;39837;47.630;18.822;2023-04-24T10:47:53;3.25;;;3.05;;
53927;SDS011;39837;47.630;18.822;2023-04-24T10:50:47;3.72;;;3.42;;
53927;SDS011;39837;47.630;18.822;2023-04-24T10:53:35;3.17;;;2.90;;
53927;SDS011;39837;47.630;18.822;2023-04-24T10:56:19;4.03;;;3.72;;
53927;SDS011;39837;47.630;18.822;2023-04-24T10:59:07;4.50;;;4.10;;
53927;SDS011;39837;47.630;18.822;2023-04-24T11:01:53;4.20;;;3.80;;
53927;SDS011;39837;47.630;18.822;2023-04-24T11:04:39;4.43;;;4.10;;
53927;SDS011;39837;47.630;18.822;2023-04-24T11:07:23;3.65;;;3.35;;
53927;SDS011;39837;47.630;18.822;2023-04-24T11:10:07;6.45;;;3.97;;
53927;SDS011;39837;47.630;18.822;2023-04-24T11:12:51;4.10;;;3.70;;
53927;SDS011;39837;47.630;18.822;2023-04-24T11:15:35;3.40;;;3.17;;
53927;SDS011;39837;47.630;18.822;2023-04-24T11:18:19;5.85;;;3.75;;
53927;SDS011;39837;47.630;18.822;2023-04-24T11:21:11;5.18;;;3.58;;
53927;SDS011;39837;47.630;18.822;2023-04-24T11:27:21;3.40;;;3.10;;
53927;SDS011;39837;47.630;18.822;2023-04-24T11:30:06;2.67;;;2.57;;
53927;SDS011;39837;47.630;18.822;2023-04-24T11:32:51;3.20;;;3.00;;
53927;SDS011;39837;47.630;18.822;2023-04-24T11:35:36;10.13;;;4.03;;
53927;SDS011;39837;47.630;18.822;2023-04-24T11:38:23;2.38;;;2.28;;
53927;SDS011;39837;47.630;18.822;2023-04-24T11:41:07;2.70;;;2.50;;
53927;SDS011;39837;47.630;18.822;2023-04-24T11:43:52;3.13;;;1.90;;
53927;SDS011;39837;47.630;18.822;2023-04-24T11:46:37;1.67;;;1.67;;
53927;SDS011;39837;47.630;18.822;2023-04-24T11:49:23;3.20;;;2.90;;
53927;SDS011;39837;47.630;18.822;2023-04-24T11:52:07;1.88;;;1.80;;
53927;SDS011;39837;47.630;18.822;2023-04-24T11:54:52;3.35;;;2.97;;
53927;SDS011;39837;47.630;18.822;2023-04-24T11:57:36;2.90;;;2.70;;
53927;SDS011;39837;47.630;18.822;2023-04-24T12:00:21;2.85;;;2.67;;
53927;SDS011;39837;47.630;18.822;2023-04-24T12:03:10;4.78;;;2.28;;
53927;SDS011;39837;47.630;18.822;2023-04-24T12:06:08;1.60;;;1.60;;
53927;SDS011;39837;47.630;18.822;2023-04-24T12:08:54;3.70;;;1.60;;
53927;SDS011;39837;47.630;18.822;2023-04-24T12:11:38;2.75;;;2.00;;
53927;SDS011;39837;47.630;18.822;2023-04-24T12:14:43;2.08;;;1.83;;
53927;SDS011;39837;47.630;18.822;2023-04-24T12:17:29;1.45;;;1.45;;
53927;SDS011;39837;47.630;18.822;2023-04-24T12:20:15;1.80;;;1.70;;
53927;SDS011;39837;47.630;18.822;2023-04-24T12:23:00;3.83;;;1.98;;
53927;SDS011;39837;47.630;18.822;2023-04-24T12:25:45;1.67;;;1.58;;
53927;SDS011;39837;47.630;18.822;2023-04-24T12:28:34;2.03;;;1.92;;
53927;SDS011;39837;47.630;18.822;2023-04-24T12:31:22;2.40;;;1.80;;
53927;SDS011;39837;47.630;18.822;2023-04-24T12:34:17;1.97;;;1.87;;
53927;SDS011;39837;47.630;18.822;2023-04-24T12:37:11;1.88;;;1.80;;
53927;SDS011;39837;47.630;18.822;2023-04-24T12:42:51;1.90;;;1.80;;
53927;SDS011;39837;47.630;18.822;2023-04-24T12:45:35;1.80;;;1.75;;
53927;SDS011;39837;47.630;18.822;2023-04-24T12:48:19;2.60;;;2.25;;
53927;SDS011;39837;47.630;18.822;2023-04-24T12:51:04;1.77;;;1.67;;
53927;SDS011;39837;47.630;18.822;2023-04-24T12:53:48;2.65;;;1.70;;
53927;SDS011;39837;47.630;18.822;2023-04-24T12:56:32;2.42;;;2.10;;
53927;SDS011;39837;47.630;18.822;2023-04-24T12:59:17;2.30;;;2.17;;
53927;SDS011;39837;47.630;18.822;2023-04-24T13:02:00;3.30;;;2.30;;
53927;SDS011;39837;47.630;18.822;2023-04-24T13:04:45;1.83;;;1.73;;
53927;SDS011;39837;47.630;18.822;2023-04-24T13:07:30;1.70;;;1.70;;
53927;SDS011;39837;47.630;18.822;2023-04-24T13:10:14;2.40;;;2.30;;
53927;SDS011;39837;47.630;18.822;2023-04-24T13:12:59;2.63;;;2.53;;
53927;SDS011;39837;47.630;18.822;2023-04-24T13:15:43;2.33;;;2.17;;
53927;SDS011;39837;47.630;18.822;2023-04-24T13:18:27;2.10;;;2.00;;
53927;SDS011;39837;47.630;18.822;2023-04-24T13:21:11;2.80;;;2.60;;
53927;SDS011;39837;47.630;18.822;2023-04-24T13:23:55;2.75;;;2.50;;
53927;SDS011;39837;47.630;18.822;2023-04-24T13:26:39;2.25;;;2.10;;
53927;SDS011;39837;47.630;18.822;2023-04-24T13:29:23;2.35;;;2.15;;
53927;SDS011;39837;47.630;18.822;2023-04-24T13:32:08;2.05;;;1.95;;
53927;SDS011;39837;47.630;18.822;2023-04-24T13:34:52;4.82;;;3.33;;
53927;SDS011;39837;47.630;18.822;2023-04-24T13:37:36;2.60;;;2.50;;
53927;SDS011;39837;47.630;18.822;2023-04-24T13:40:20;2.92;;;2.70;;
53927;SDS011;39837;47.630;18.822;2023-04-24T13:43:04;4.07;;;3.67;;
53927;SDS011;39837;47.630;18.822;2023-04-24T13:45:49;4.15;;;3.30;;
53927;SDS011;39837;47.630;18.822;2023-04-24T13:48:33;3.10;;;2.90;;
53927;SDS011;39837;47.630;18.822;2023-04-24T13:51:16;3.85;;;3.30;;
53927;SDS011;39837;47.630;18.822;2023-04-24T13:54:00;2.67;;;2.55;;
53927;SDS011;39837;47.630;18.822;2023-04-24T13:56:44;2.50;;;2.40;;
53927;SDS011;39837;47.630;18.822;2023-04-24T13:59:28;3.38;;;2.75;;
53927;SDS011;39837;47.630;18.822;2023-04-24T14:02:12;2.97;;;2.65;;
53927;SDS011;39837;47.630;18.822;2023-04-24T14:04:56;2.70;;;2.50;;
53927;SDS011;39837;47.630;18.822;2023-04-24T14:07:40;6.13;;;3.38;;
53927;SDS011;39837;47.630;18.822;2023-04-24T14:10:25;3.17;;;2.88;;
53927;SDS011;39837;47.630;18.822;2023-04-24T14:13:10;11.13;;;3.20;;
53927;SDS011;39837;47.630;18.822;2023-04-24T14:15:54;2.22;;;2.13;;
53927;SDS011;39837;47.630;18.822;2023-04-24T14:18:38;2.42;;;2.30;;
53927;SDS011;39837;47.630;18.822;2023-04-24T14:21:22;1.90;;;1.90;;
53927;SDS011;39837;47.630;18.822;2023-04-24T14:24:06;2.47;;;2.17;;
53927;SDS011;39837;47.630;18.822;2023-04-24T14:26:50;2.85;;;2.65;;
53927;SDS011;39837;47.630;18.822;2023-04-24T14:29:34;2.47;;;2.10;;
53927;SDS011;39837;47.630;18.822;2023-04-24T14:32:18;2.03;;;1.92;;
53927;SDS011;39837;47.630;18.822;2023-04-24T14:35:02;1.98;;;1.90;;
53927;SDS011;39837;47.630;18.822;2023-04-24T14:37:47;2.63;;;2.25;;
53927;SDS011;39837;47.630;18.822;2023-04-24T14:40:32;1.90;;;1.80;;
53927;SDS011;39837;47.630;18.822;2023-04-24T14:43:16;2.42;;;2.22;;
53927;SDS011;39837;47.630;18.822;2023-04-24T14:46:00;2.47;;;2.38;;
53927;SDS011;39837;47.630;18.822;2023-04-24T14:48:44;2.55;;;2.35;;
53927;SDS011;39837;47.630;18.822;2023-04-24T14:51:28;2.13;;;2.13;;
53927;SDS011;39837;47.630;18.822;2023-04-24T14:54:13;2.22;;;2.13;;
53927;SDS011;39837;47.630;18.822;2023-04-24T14:56:58;2.30;;;2.10;;
53927;SDS011;39837;47.630;18.822;2023-04-24T14:59:44;2.88;;;2.65;;
53927;SDS011;39837;47.630;18.822;2023-04-24T15:02:29;2.40;;;2.30;;
53927;SDS011;39837;47.630;18.822;2023-04-24T15:05:13;2.55;;;2.45;;
53927;SDS011;39837;47.630;18.822;2023-04-24T15:07:57;3.63;;;3.25;;
53927;SDS011;39837;47.630;18.822;2023-04-24T15:10:41;2.92;;;2.72;;
53927;SDS011;39837;47.630;18.822;2023-04-24T15:13:25;2.60;;;2.40;;
53927;SDS011;39837;47.630;18.822;2023-04-24T15:16:13;2.15;;;1.95;;
53927;SDS011;39837;47.630;18.822;2023-04-24T15:18:57;2.50;;;2.15;;
53927;SDS011;39837;47.630;18.822;2023-04-24T15:21:41;1.88;;;1.88;;
53927;SDS011;39837;47.630;18.822;2023-04-24T15:24:26;2.25;;;2.13;;
53927;SDS011;39837;47.630;18.822;2023-04-24T15:27:10;2.15;;;2.05;;
53927;SDS011;39837;47.630;18.822;2023-04-24T15:29:54;2.20;;;2.10;;
53927;SDS011;39837;47.630;18.822;2023-04-24T15:32:39;2.55;;;2.35;;
53927;SDS011;39837;47.630;18.822;2023-04-24T15:35:23;2.25;;;2.15;;
53927;SDS011;39837;47.630;18.822;2023-04-24T15:38:07;2.28;;;2.17;;
53927;SDS011;39837;47.630;18.822;2023-04-24T15:40:52;2.30;;;2.20;;
53927;SDS011;39837;47.630;18.822;2023-04-24T15:43:36;2.55;;;2.45;;
53927;SDS011;39837;47.630;18.822;2023-04-24T15:46:21;2.35;;;2.20;;
53927;SDS011;39837;47.630;18.822;2023-04-24T15:49:05;2.80;;;2.65;;
53927;SDS011;39837;47.630;18.822;2023-04-24T15:51:49;2.28;;;2.20;;
53927;SDS011;39837;47.630;18.822;2023-04-24T15:54:33;3.67;;;2.97;;
53927;SDS011;39837;47.630;18.822;2023-04-24T15:57:17;2.53;;;2.42;;
53927;SDS011;39837;47.630;18.822;2023-04-24T16:00:03;2.50;;;2.40;;
53927;SDS011;39837;47.630;18.822;2023-04-24T16:02:50;2.33;;;2.22;;
53927;SDS011;39837;47.630;18.822;2023-04-24T16:05:34;2.40;;;2.30;;
53927;SDS011;39837;47.630;18.822;2023-04-24T16:08:19;3.03;;;2.30;;
53927;SDS011;39837;47.630;18.822;2023-04-24T16:11:04;2.38;;;2.20;;
53927;SDS011;39837;47.630;18.822;2023-04-24T16:13:48;11.43;;;2.33;;
53927;SDS011;39837;47.630;18.822;2023-04-24T16:16:33;2.33;;;2.20;;
53927;SDS011;39837;47.630;18.822;2023-04-24T16:19:18;2.60;;;2.47;;
53927;SDS011;39837;47.630;18.822;2023-04-24T16:22:02;2.33;;;2.22;;
53927;SDS011;39837;47.630;18.822;2023-04-24T16:24:47;8.80;;;5.63;;
53927;SDS011;39837;47.630;18.822;2023-04-24T16:27:31;10.45;;;4.57;;
53927;SDS011;39837;47.630;18.822;2023-04-24T16:30:15;2.28;;;2.22;;